Time;durP1;ratioP1;P1;durP2;ratioP2;P2;SDS_P1;SDS_P2;PMS_P1;PMS_P2;Temp;Humidity;BMP_temperature;BMP_pressure;BME280_temperature;BME280_humidity;BME280_pressure;Samples;Min_cycle;Max_cycle;Signal;HPM_P1;HPM_P2
2020/12/10 00:02:27;;;;;;;94.40;38.97;;;4.30;99.90;;;;;;5031027;28;20390;-48
2020/12/10 00:04:52;;;;;;;84.00;39.38;;;4.30;99.90;;;;;;5030518;28;20383;-48
2020/12/10 00:07:22;;;;;;;98.78;39.08;;;4.30;99.90;;;;;;5031229;28;20029;-46
2020/12/10 00:09:48;;;;;;;88.60;40.05;;;4.30;99.90;;;;;;5031252;28;20026;-47
2020/12/10 00:12:13;;;;;;;87.03;39.22;;;4.30;99.90;;;;;;5029794;28;20068;-49
2020/12/10 00:14:39;;;;;;;81.32;34.63;;;4.30;99.90;;;;;;5029309;28;20462;-47
2020/12/10 00:17:04;;;;;;;81.43;35.63;;;4.30;99.90;;;;;;5030914;28;20059;-50
2020/12/10 00:19:30;;;;;;;74.05;35.05;;;4.30;99.90;;;;;;5031119;28;20065;-47
2020/12/10 00:21:55;;;;;;;72.65;35.45;;;4.30;99.90;;;;;;5033634;28;20474;-48
2020/12/10 00:24:21;;;;;;;70.57;34.35;;;4.30;99.90;;;;;;5030544;28;20036;-51
2020/12/10 00:26:50;;;;;;;72.60;33.90;;;4.30;99.90;;;;;;5029689;28;20029;-47
2020/12/10 00:29:15;;;;;;;62.40;32.78;;;4.20;99.90;;;;;;5030321;28;20041;-49
2020/12/10 00:31:41;;;;;;;68.13;34.50;;;4.20;99.90;;;;;;5030164;28;20379;-48
2020/12/10 00:34:06;;;;;;;65.15;31.15;;;4.30;99.90;;;;;;5030411;28;20017;-48
2020/12/10 00:36:32;;;;;;;70.90;33.75;;;4.20;99.90;;;;;;5029804;28;20031;-48
2020/12/10 00:38:58;;;;;;;64.65;32.00;;;4.20;99.90;;;;;;5028956;28;20697;-47
2020/12/10 00:41:24;;;;;;;64.28;31.33;;;4.20;99.90;;;;;;5030994;28;20021;-49
2020/12/10 00:43:49;;;;;;;70.68;33.17;;;4.20;99.90;;;;;;5030111;28;20030;-47
2020/12/10 00:46:15;;;;;;;67.43;31.08;;;4.20;99.90;;;;;;5029208;28;20522;-47
2020/12/10 00:48:40;;;;;;;59.85;28.80;;;4.20;99.90;;;;;;5030098;28;20071;-47
2020/12/10 00:51:07;;;;;;;60.78;30.45;;;4.20;99.90;;;;;;5030069;28;20498;-47
2020/12/10 00:53:33;;;;;;;63.85;30.73;;;4.20;99.90;;;;;;5028682;28;20421;-49
2020/12/10 00:55:59;;;;;;;67.88;30.17;;;4.20;99.90;;;;;;5031323;28;20104;-47
2020/12/10 00:58:24;;;;;;;64.03;30.58;;;4.20;99.90;;;;;;5029408;28;20103;-48
2020/12/10 01:00:51;;;;;;;59.50;29.05;;;4.20;99.90;;;;;;5029932;28;20041;-47
2020/12/10 01:03:17;;;;;;;62.78;29.73;;;4.20;99.90;;;;;;5034873;28;20025;-46
2020/12/10 01:05:43;;;;;;;56.80;28.65;;;4.20;99.90;;;;;;5029310;28;20078;-46
2020/12/10 01:08:08;;;;;;;57.00;29.65;;;4.10;99.90;;;;;;5031003;28;20017;-48
2020/12/10 01:10:34;;;;;;;59.08;28.75;;;4.20;99.90;;;;;;5029644;28;20112;-47
2020/12/10 01:13:00;;;;;;;59.47;29.70;;;4.20;99.90;;;;;;5042442;28;20521;-48
2020/12/10 01:15:26;;;;;;;57.95;28.65;;;4.20;99.90;;;;;;5027563;28;20029;-47
2020/12/10 01:17:51;;;;;;;59.20;29.63;;;4.20;99.90;;;;;;5028799;28;20021;-49
2020/12/10 01:20:17;;;;;;;71.70;31.55;;;4.20;99.90;;;;;;5032050;28;20026;-48
2020/12/10 01:22:43;;;;;;;61.25;30.65;;;4.20;99.90;;;;;;5030198;28;20026;-47
2020/12/10 01:25:08;;;;;;;59.20;30.27;;;4.20;99.90;;;;;;5032435;28;20028;-47
2020/12/10 01:27:34;;;;;;;55.88;27.30;;;4.20;99.90;;;;;;5034109;28;20026;-46
2020/12/10 01:29:59;;;;;;;55.72;29.33;;;4.20;99.90;;;;;;5029712;28;20033;-47
2020/12/10 01:32:26;;;;;;;57.38;28.60;;;4.20;99.90;;;;;;5029979;28;20639;-47
2020/12/10 01:34:52;;;;;;;60.25;28.05;;;4.20;99.90;;;;;;5038773;28;20029;-47
2020/12/10 01:37:19;;;;;;;58.53;29.60;;;4.20;99.90;;;;;;5049820;28;20036;-47
2020/12/10 01:39:45;;;;;;;63.95;30.95;;;4.20;99.90;;;;;;5048672;28;20082;-48
2020/12/10 01:42:11;;;;;;;66.53;31.67;;;4.20;99.90;;;;;;5049867;28;20029;-47
2020/12/10 01:44:38;;;;;;;61.50;29.33;;;4.20;99.90;;;;;;5049174;28;20112;-46
2020/12/10 01:47:05;;;;;;;59.55;29.92;;;4.20;99.90;;;;;;5049759;28;20021;-47
2020/12/10 01:49:34;;;;;;;64.25;31.30;;;4.20;99.90;;;;;;5049799;28;20029;-47
2020/12/10 01:52:00;;;;;;;68.97;31.20;;;4.20;99.90;;;;;;5050004;28;20021;-46
2020/12/10 01:54:25;;;;;;;75.40;34.63;;;4.20;99.90;;;;;;5049155;28;20384;-46
2020/12/10 01:56:54;;;;;;;72.05;32.22;;;4.20;99.90;;;;;;5049881;28;20520;-46
2020/12/10 01:59:21;;;;;;;70.07;32.88;;;4.20;99.90;;;;;;5049716;28;20033;-49
2020/12/10 02:01:46;;;;;;;81.40;34.15;;;4.10;99.90;;;;;;5049650;28;20044;-47
2020/12/10 02:04:33;;;;;;;90.13;37.33;;;4.10;99.90;;;;;;5049813;28;20051;-47
2020/12/10 02:06:59;;;;;;;86.50;35.55;;;4.10;99.90;;;;;;5037509;28;20021;-47
2020/12/10 02:09:24;;;;;;;84.07;37.30;;;4.10;99.90;;;;;;5049505;28;20029;-46
2020/12/10 02:11:51;;;;;;;88.90;37.35;;;4.10;99.90;;;;;;5049506;28;20090;-48
2020/12/10 02:14:16;;;;;;;102.10;39.70;;;4.20;99.90;;;;;;5049539;28;20025;-46
2020/12/10 02:16:42;;;;;;;96.57;37.72;;;4.10;99.90;;;;;;5048779;28;20039;-47
2020/12/10 02:19:08;;;;;;;100.78;37.83;;;4.10;99.90;;;;;;5049486;28;20029;-46
2020/12/10 02:21:34;;;;;;;101.13;39.78;;;4.10;99.90;;;;;;5049357;28;20031;-47
2020/12/10 02:23:59;;;;;;;101.22;41.50;;;4.10;99.90;;;;;;5048083;28;20025;-47
2020/12/10 02:26:26;;;;;;;118.93;42.92;;;4.10;99.90;;;;;;5048739;28;20033;-47
2020/12/10 02:28:56;;;;;;;109.40;41.08;;;4.10;99.90;;;;;;5048064;28;20025;-47
2020/12/10 02:31:23;;;;;;;111.85;42.17;;;4.00;99.90;;;;;;5049214;28;20096;-47
2020/12/10 02:33:49;;;;;;;109.63;40.55;;;4.00;99.90;;;;;;5035273;28;20110;-47
2020/12/10 02:36:14;;;;;;;116.63;42.25;;;4.00;99.90;;;;;;5048980;28;20148;-46
2020/12/10 02:38:40;;;;;;;117.13;44.38;;;4.00;99.90;;;;;;5053108;28;20102;-48
2020/12/10 02:41:05;;;;;;;132.25;45.42;;;4.00;99.90;;;;;;5052930;28;20029;-47
2020/12/10 02:43:31;;;;;;;128.10;45.30;;;4.00;99.90;;;;;;5051785;28;20056;-47
2020/12/10 02:45:56;;;;;;;115.50;42.10;;;3.90;99.90;;;;;;5051903;28;20662;-47
2020/12/10 02:48:22;;;;;;;113.05;43.97;;;4.00;99.90;;;;;;5052967;28;20021;-46
2020/12/10 02:50:47;;;;;;;133.65;43.92;;;3.90;99.90;;;;;;5052727;28;20028;-46
2020/12/10 02:53:13;;;;;;;128.93;43.92;;;3.90;99.90;;;;;;5052649;28;20048;-47
2020/12/10 02:55:38;;;;;;;127.38;42.90;;;3.90;99.90;;;;;;5052170;28;20029;-46
2020/12/10 02:58:07;;;;;;;110.82;40.00;;;3.90;99.90;;;;;;5052535;28;20067;-46
2020/12/10 03:00:32;;;;;;;126.63;43.00;;;3.90;99.90;;;;;;5052511;28;20031;-47
2020/12/10 03:02:58;;;;;;;121.72;44.20;;;3.90;99.90;;;;;;5052483;28;20037;-47
2020/12/10 03:05:23;;;;;;;122.15;44.45;;;3.90;99.90;;;;;;5051724;28;20029;-46
2020/12/10 03:07:49;;;;;;;114.70;39.25;;;3.90;99.90;;;;;;5052415;28;20028;-46
2020/12/10 03:10:14;;;;;;;123.47;44.80;;;3.90;99.90;;;;;;5052419;28;20014;-47
2020/12/10 03:12:40;;;;;;;113.78;44.00;;;3.90;99.90;;;;;;5052391;28;20025;-47
2020/12/10 03:15:05;;;;;;;118.85;45.17;;;3.90;99.90;;;;;;5051578;28;20454;-46
2020/12/10 03:17:31;;;;;;;117.45;42.42;;;3.90;99.90;;;;;;5051731;28;20373;-50
2020/12/10 03:19:57;;;;;;;111.45;45.20;;;3.90;99.90;;;;;;5051794;28;20032;-47
2020/12/10 03:22:22;;;;;;;100.13;40.45;;;3.90;99.90;;;;;;5052197;28;20029;-50
2020/12/10 03:24:47;;;;;;;117.32;42.63;;;3.90;99.90;;;;;;5051601;28;20037;-49
2020/12/10 03:27:13;;;;;;;106.10;40.95;;;3.90;99.90;;;;;;5052142;28;20040;-47
2020/12/10 03:29:39;;;;;;;112.85;41.80;;;3.90;99.90;;;;;;5052044;28;20043;-47
2020/12/10 03:32:05;;;;;;;117.60;43.28;;;3.90;99.90;;;;;;5051267;28;20025;-47
2020/12/10 03:34:31;;;;;;;121.25;43.13;;;3.90;99.90;;;;;;5037792;28;20108;-47
2020/12/10 03:36:58;;;;;;;131.18;45.58;;;3.90;99.90;;;;;;5050418;28;20029;-47
2020/12/10 03:39:26;;;;;;;134.65;46.67;;;3.90;99.90;;;;;;5051633;28;20394;-46
2020/12/10 03:41:52;;;;;;;130.52;47.22;;;3.80;99.90;;;;;;5050289;28;20037;-47
2020/12/10 03:44:19;;;;;;;135.75;47.20;;;3.80;99.90;;;;;;5051438;28;20386;-47
2020/12/10 03:46:44;;;;;;;138.43;45.92;;;3.80;99.90;;;;;;5050842;28;20037;-47
2020/12/10 03:49:11;;;;;;;135.63;46.20;;;3.80;99.90;;;;;;5050414;28;20090;-47
2020/12/10 03:51:37;;;;;;;150.88;48.85;;;3.70;99.90;;;;;;5051454;28;20021;-47
2020/12/10 03:54:03;;;;;;;162.02;49.03;;;3.70;99.90;;;;;;5051408;28;20021;-46
2020/12/10 03:56:31;;;;;;;131.55;46.33;;;3.70;99.90;;;;;;5050778;28;20056;-46
2020/12/10 03:58:57;;;;;;;148.68;51.33;;;3.70;99.90;;;;;;5051262;28;20123;-49
2020/12/10 04:01:22;;;;;;;165.57;48.03;;;3.70;99.90;;;;;;5049508;28;20029;-47
2020/12/10 04:03:48;;;;;;;155.57;50.67;;;3.70;99.90;;;;;;5051238;28;20095;-46
2020/12/10 04:06:13;;;;;;;142.07;49.83;;;3.70;99.90;;;;;;5050362;28;20044;-46
2020/12/10 04:08:39;;;;;;;146.07;48.40;;;3.70;99.90;;;;;;5051129;28;20029;-46
2020/12/10 04:11:05;;;;;;;142.00;49.10;;;3.70;99.90;;;;;;5050197;28;20021;-47
2020/12/10 04:13:30;;;;;;;139.20;48.38;;;3.70;99.90;;;;;;5050470;28;20033;-48
2020/12/10 04:15:59;;;;;;;142.70;48.03;;;3.70;99.90;;;;;;5050101;28;20037;-47
2020/12/10 04:18:24;;;;;;;143.73;45.95;;;3.70;99.90;;;;;;5050768;28;20036;-46
2020/12/10 04:20:50;;;;;;;157.82;54.22;;;3.60;99.90;;;;;;5051157;28;20143;-46
2020/12/10 04:23:15;;;;;;;174.68;53.08;;;3.70;99.90;;;;;;5050846;28;20131;-46
2020/12/10 04:25:42;;;;;;;160.75;53.40;;;3.70;99.90;;;;;;5050470;28;20141;-45
2020/12/10 04:28:07;;;;;;;152.93;52.88;;;3.60;99.90;;;;;;5050936;28;20021;-45
2020/12/10 04:30:33;;;;;;;148.70;48.38;;;3.70;99.90;;;;;;5050641;28;20478;-46
2020/12/10 04:32:58;;;;;;;153.63;51.40;;;3.60;99.90;;;;;;5041920;28;20030;-47
2020/12/10 04:35:23;;;;;;;160.88;51.70;;;3.60;99.90;;;;;;5043922;28;20028;-46
2020/12/10 04:37:49;;;;;;;162.75;50.83;;;3.60;99.90;;;;;;5050786;28;20021;-46
2020/12/10 04:40:14;;;;;;;157.98;50.83;;;3.50;99.90;;;;;;5050873;28;20104;-46
2020/12/10 04:42:42;;;;;;;183.48;53.47;;;3.60;99.90;;;;;;5050536;28;20033;-48
2020/12/10 04:45:07;;;;;;;163.57;54.30;;;3.60;99.90;;;;;;5050023;28;20600;-46
2020/12/10 04:47:33;;;;;;;161.40;51.65;;;3.50;99.90;;;;;;5050155;28;20028;-49
2020/12/10 04:50:03;;;;;;;166.40;53.30;;;3.60;99.90;;;;;;5050554;28;20036;-46
2020/12/10 04:52:29;;;;;;;161.90;49.47;;;3.50;99.90;;;;;;5050452;28;20021;-47
2020/12/10 04:54:55;;;;;;;157.20;51.72;;;3.50;99.90;;;;;;5048547;28;20021;-46
2020/12/10 04:57:22;;;;;;;143.48;47.28;;;3.50;99.90;;;;;;5048902;28;20063;-46
2020/12/10 04:59:47;;;;;;;143.30;45.83;;;3.60;99.90;;;;;;5050158;28;20033;-47
2020/12/10 05:02:13;;;;;;;141.00;46.75;;;3.50;99.90;;;;;;5049967;28;20036;-46
2020/12/10 05:04:39;;;;;;;130.43;44.75;;;3.50;99.90;;;;;;5049643;28;20025;-46
2020/12/10 05:07:05;;;;;;;136.63;46.25;;;3.50;99.90;;;;;;5050392;28;20374;-47
2020/12/10 05:09:32;;;;;;;131.65;46.30;;;3.50;99.90;;;;;;5038676;28;20033;-47
2020/12/10 05:11:58;;;;;;;130.45;45.85;;;3.50;99.90;;;;;;5042796;28;20544;-47
2020/12/10 05:14:25;;;;;;;126.00;42.67;;;3.50;99.90;;;;;;5036765;28;20103;-47
2020/12/10 05:17:11;;;;;;;136.07;44.85;;;3.50;99.90;;;;;;5029091;28;20036;-47
2020/12/10 05:19:37;;;;;;;146.05;46.33;;;3.50;99.90;;;;;;5034176;28;20390;-47
2020/12/10 05:22:07;;;;;;;138.23;46.00;;;3.50;99.90;;;;;;5028192;28;20033;-47
2020/12/10 05:24:33;;;;;;;130.80;44.55;;;3.50;99.90;;;;;;5028719;28;20030;-47
2020/12/10 05:27:22;;;;;;;126.38;43.65;;;3.50;99.90;;;;;;5029318;28;20075;-47
2020/12/10 05:29:49;;;;;;;126.03;45.25;;;3.50;99.90;;;;;;5029478;28;20020;-47
2020/12/10 05:32:40;;;;;;;135.18;45.22;;;3.50;99.90;;;;;;5029327;28;20049;-47
2020/12/10 05:35:24;;;;;;;131.00;42.03;;;3.50;99.90;;;;;;5040605;28;20467;-47
2020/12/10 05:37:52;;;;;;;133.95;45.80;;;3.60;99.90;;;;;;5049687;28;20050;-47
2020/12/10 05:40:18;;;;;;;132.77;45.10;;;3.50;99.90;;;;;;5049931;28;20021;-47
2020/12/10 05:42:51;;;;;;;133.05;46.15;;;3.60;99.90;;;;;;5049672;28;20102;-47
2020/12/10 05:45:18;;;;;;;119.78;43.22;;;3.60;99.90;;;;;;5047881;28;20043;-47
2020/12/10 05:47:51;;;;;;;128.50;45.30;;;3.50;99.90;;;;;;5049340;28;20017;-48
2020/12/10 05:50:26;;;;;;;127.78;42.85;;;3.50;99.90;;;;;;5049648;28;20107;-47
2020/12/10 05:53:11;;;;;;;132.00;43.53;;;3.50;99.90;;;;;;5049743;28;20150;-47
2020/12/10 05:55:42;;;;;;;145.65;44.95;;;3.50;99.90;;;;;;5049177;28;20017;-48
2020/12/10 05:58:08;;;;;;;128.43;44.47;;;3.50;99.90;;;;;;5049319;28;20060;-47
2020/12/10 06:00:35;;;;;;;142.00;44.00;;;3.50;99.90;;;;;;5049663;28;20029;-47
2020/12/10 06:03:01;;;;;;;138.07;46.20;;;3.40;99.90;;;;;;5049515;28;20039;-48
2020/12/10 06:05:27;;;;;;;134.13;45.28;;;3.40;99.90;;;;;;5049135;28;20029;-47
2020/12/10 06:08:09;;;;;;;149.32;43.85;;;3.40;99.90;;;;;;5049896;28;20108;-47
2020/12/10 06:10:37;;;;;;;138.93;43.00;;;3.40;99.90;;;;;;5049730;28;20025;-49
2020/12/10 06:13:03;;;;;;;133.05;43.65;;;3.40;99.90;;;;;;5052483;28;20036;-47
2020/12/10 06:15:32;;;;;;;131.57;43.67;;;3.40;99.90;;;;;;5052858;28;20021;-47
2020/12/10 06:18:06;;;;;;;136.43;46.08;;;3.40;99.90;;;;;;5051930;28;20028;-48
2020/12/10 06:20:36;;;;;;;144.00;45.10;;;3.40;99.90;;;;;;5040544;28;20036;-46
2020/12/10 06:23:20;;;;;;;;;;;3.40;99.90;;;;;;5037212;28;20018;-45
2020/12/10 06:25:46;;;;;;;145.43;46.45;;;3.40;99.90;;;;;;5030830;28;19912;-44
2020/12/10 06:28:22;;;;;;;143.07;45.80;;;3.40;99.90;;;;;;5031912;28;20024;-45
2020/12/10 06:31:06;;;;;;;131.80;44.83;;;3.40;99.90;;;;;;5032934;28;20021;-44
2020/12/10 06:33:39;;;;;;;148.10;49.15;;;3.50;99.90;;;;;;5033143;28;20027;-45
2020/12/10 06:36:17;;;;;;;154.77;48.22;;;3.50;99.90;;;;;;5051684;28;20028;-48
2020/12/10 06:38:43;;;;;;;161.70;51.78;;;3.40;99.90;;;;;;5051892;28;20047;-45
2020/12/10 06:41:09;;;;;;;162.45;48.80;;;3.50;99.90;;;;;;5052944;28;20025;-48
2020/12/10 06:43:36;;;;;;;140.23;42.92;;;3.40;99.90;;;;;;5052830;28;20028;-46
2020/12/10 06:46:02;;;;;;;156.20;50.63;;;3.40;99.90;;;;;;5051879;28;20478;-45
2020/12/10 06:48:39;;;;;;;144.00;46.60;;;3.40;99.90;;;;;;5052838;28;20100;-46
2020/12/10 06:51:16;;;;;;;150.00;47.67;;;3.40;99.90;;;;;;5050101;28;20024;-45
2020/12/10 06:53:59;;;;;;;141.00;46.72;;;3.40;99.90;;;;;;5031736;28;20462;-45
2020/12/10 06:56:28;;;;;;;147.05;47.88;;;3.40;99.90;;;;;;5040325;28;20080;-46
2020/12/10 06:58:57;;;;;;;150.38;45.50;;;3.40;99.90;;;;;;5042075;28;20025;-44
2020/12/10 07:01:24;;;;;;;132.50;44.28;;;3.50;99.90;;;;;;5041183;28;20024;-48
2020/12/10 07:03:54;;;;;;;141.23;48.50;;;3.50;99.90;;;;;;5031480;28;20112;-46
2020/12/10 07:06:21;;;;;;;143.63;45.63;;;3.50;99.90;;;;;;5030594;28;20096;-46
2020/12/10 07:09:10;;;;;;;127.90;41.42;;;3.50;99.90;;;;;;5032243;28;20457;-46
2020/12/10 07:11:38;;;;;;;137.93;45.25;;;3.40;99.90;;;;;;5032304;28;20018;-45
2020/12/10 07:14:27;;;;;;;137.68;43.90;;;3.40;99.90;;;;;;5032294;28;20049;-45
2020/12/10 07:16:56;;;;;;;121.18;40.70;;;3.40;99.90;;;;;;5029449;28;20120;-46
2020/12/10 07:19:23;;;;;;;127.07;41.95;;;3.40;99.90;;;;;;5030783;28;20025;-46
2020/12/10 07:21:49;;;;;;;112.47;41.70;;;3.40;99.90;;;;;;5031088;28;20037;-46
2020/12/10 07:24:15;;;;;;;119.78;41.53;;;3.40;99.90;;;;;;5031679;28;20099;-46
2020/12/10 07:26:41;;;;;;;130.77;42.75;;;3.40;99.90;;;;;;5031057;28;20488;-48
2020/12/10 07:29:07;;;;;;;118.93;40.90;;;3.40;99.90;;;;;;5031809;28;20060;-45
2020/12/10 07:31:32;;;;;;;123.95;41.58;;;3.40;99.90;;;;;;5031460;28;20447;-46
2020/12/10 07:33:58;;;;;;;111.38;40.17;;;3.40;99.90;;;;;;5031441;28;20064;-47
2020/12/10 07:36:27;;;;;;;95.03;36.17;;;3.40;99.90;;;;;;5030793;28;20049;-46
2020/12/10 07:38:52;;;;;;;105.22;39.65;;;3.40;99.90;;;;;;5031919;28;20022;-45
2020/12/10 07:41:18;;;;;;;99.07;34.28;;;3.40;99.90;;;;;;5031767;28;20450;-47
2020/12/10 07:43:51;;;;;;;106.15;38.95;;;3.40;99.90;;;;;;5030998;28;20026;-44
2020/12/10 07:46:17;;;;;;;105.82;36.95;;;3.40;99.90;;;;;;5030346;28;20033;-45
2020/12/10 07:48:46;;;;;;;95.32;35.92;;;3.40;99.90;;;;;;5031561;28;20026;-44
2020/12/10 07:51:21;;;;;;;86.13;33.17;;;3.40;99.90;;;;;;5031303;28;20021;-45
2020/12/10 07:53:48;;;;;;;77.95;31.70;;;3.40;99.90;;;;;;5031571;28;20072;-46
2020/12/10 07:56:26;;;;;;;80.95;32.17;;;3.30;99.90;;;;;;5030798;28;20070;-44
2020/12/10 07:59:14;;;;;;;77.95;31.42;;;3.30;99.90;;;;;;5030937;28;20124;-46
2020/12/10 08:01:57;;;;;;;79.50;32.10;;;3.30;99.90;;;;;;5034868;28;20621;-45
2020/12/10 08:04:23;;;;;;;79.82;32.90;;;3.30;99.90;;;;;;5029675;28;20544;-46
2020/12/10 08:06:51;;;;;;;86.43;32.92;;;3.30;99.90;;;;;;5028707;28;20029;-47
2020/12/10 08:09:17;;;;;;;76.95;31.02;;;3.30;99.90;;;;;;5033943;28;20072;-46
2020/12/10 08:11:56;;;;;;;85.80;32.97;;;3.30;99.90;;;;;;5030435;28;20100;-44
2020/12/10 08:14:25;;;;;;;90.05;35.63;;;3.30;99.90;;;;;;5030057;28;20017;-44
2020/12/10 08:16:51;;;;;;;98.20;35.97;;;3.30;99.90;;;;;;5030030;28;20028;-45
2020/12/10 08:19:19;;;;;;;91.13;35.55;;;3.20;99.90;;;;;;5030107;28;20398;-44
2020/12/10 08:21:46;;;;;;;84.80;34.28;;;3.20;99.90;;;;;;5029114;28;20022;-45
2020/12/10 08:24:13;;;;;;;92.90;35.13;;;3.20;99.90;;;;;;5030329;28;20025;-47
2020/12/10 08:26:42;;;;;;;86.65;31.73;;;3.20;99.90;;;;;;5029448;28;20033;-47
2020/12/10 08:29:14;;;;;;;87.05;34.20;;;3.20;99.90;;;;;;5030144;28;20422;-45
2020/12/10 08:31:40;;;;;;;90.40;36.92;;;3.20;99.90;;;;;;5029046;28;20029;-43
2020/12/10 08:34:17;;;;;;;87.30;35.50;;;3.20;99.90;;;;;;5027889;28;20021;-44
2020/12/10 08:36:43;;;;;;;104.78;39.40;;;3.30;99.90;;;;;;5028356;28;20474;-44
2020/12/10 08:39:08;;;;;;;100.70;40.05;;;3.30;99.90;;;;;;5029291;28;20481;-46
2020/12/10 08:41:37;;;;;;;107.97;38.78;;;3.30;99.90;;;;;;5033278;28;20029;-45
2020/12/10 08:44:04;;;;;;;116.72;43.28;;;3.20;99.90;;;;;;5028671;28;20025;-44
2020/12/10 08:46:31;;;;;;;111.32;41.58;;;3.20;99.90;;;;;;5028505;28;20060;-53
2020/12/10 08:49:16;;;;;;;121.93;42.05;;;3.30;99.90;;;;;;5028486;28;20028;-58
2020/12/10 08:51:43;;;;;;;117.40;43.60;;;3.30;99.90;;;;;;5029901;28;20083;-45
2020/12/10 08:54:09;;;;;;;107.65;40.22;;;3.30;99.90;;;;;;5029001;28;20025;-45
2020/12/10 08:56:38;;;;;;;102.53;40.88;;;3.30;99.90;;;;;;5027575;28;20032;-47
2020/12/10 08:59:05;;;;;;;106.15;41.70;;;3.30;99.90;;;;;;5027402;28;20053;-44
2020/12/10 09:01:31;;;;;;;103.97;38.40;;;3.30;99.90;;;;;;5029666;28;20048;-51
2020/12/10 09:03:56;;;;;;;101.07;38.38;;;3.30;99.90;;;;;;5029238;28;20048;-50
2020/12/10 09:06:23;;;;;;;99.35;39.05;;;3.30;99.90;;;;;;5027292;28;20060;-45
2020/12/10 09:08:52;;;;;;;96.65;40.53;;;3.30;99.90;;;;;;5028550;28;20076;-48
2020/12/10 09:11:17;;;;;;;100.93;38.80;;;3.30;99.90;;;;;;5028723;28;20017;-48
2020/12/10 09:13:43;;;;;;;97.10;38.55;;;3.30;99.90;;;;;;5033152;28;20062;-44
2020/12/10 09:16:10;;;;;;;102.80;41.20;;;3.30;99.90;;;;;;5033026;28;20064;-44
2020/12/10 09:18:35;;;;;;;106.90;39.78;;;3.30;99.90;;;;;;5027493;28;20044;-44
2020/12/10 09:21:01;;;;;;;116.15;42.53;;;3.30;99.90;;;;;;5030628;28;20033;-48
2020/12/10 09:23:26;;;;;;;113.72;43.60;;;3.30;99.90;;;;;;5033778;28;20032;-44
2020/12/10 09:25:53;;;;;;;116.65;43.53;;;3.30;99.90;;;;;;5036393;28;20067;-44
2020/12/10 09:28:19;;;;;;;123.82;43.25;;;3.30;99.90;;;;;;5037295;28;20048;-43
2020/12/10 09:30:44;;;;;;;120.13;42.75;;;3.30;99.90;;;;;;5036552;28;20045;-44
2020/12/10 09:33:10;;;;;;;108.70;42.17;;;3.30;99.90;;;;;;5027767;28;20485;-47
2020/12/10 09:35:36;;;;;;;108.57;41.15;;;3.30;99.90;;;;;;5040878;28;20078;-52
2020/12/10 09:38:03;;;;;;;118.50;46.45;;;3.20;99.90;;;;;;5026381;28;20112;-44
2020/12/10 09:40:31;;;;;;;104.07;40.72;;;3.20;99.90;;;;;;5029164;28;20094;-45
2020/12/10 09:42:56;;;;;;;115.20;43.38;;;3.30;99.90;;;;;;5028288;28;20014;-44
2020/12/10 09:45:23;;;;;;;117.85;43.22;;;3.30;99.90;;;;;;5027324;28;20028;-45
2020/12/10 09:47:49;;;;;;;113.63;43.03;;;3.30;99.90;;;;;;5029975;28;20094;-44
2020/12/10 09:50:29;;;;;;;116.78;44.08;;;3.30;99.90;;;;;;5032933;28;20112;-44
2020/12/10 09:56:10;;;;;;;93.68;37.78;;;3.30;99.90;;;;;;5031099;28;20128;-44
2020/12/10 09:58:31;;;;;;;95.47;38.17;;;3.30;99.90;;;;;;5033149;28;20380;-44
2020/12/10 10:00:58;;;;;;;110.32;40.92;;;3.30;99.90;;;;;;5044608;28;20079;-44
2020/12/10 10:03:24;;;;;;;102.07;38.78;;;3.30;99.90;;;;;;5033529;28;20029;-46
2020/12/10 10:05:50;;;;;;;100.97;38.20;;;3.30;99.90;;;;;;5045978;28;20036;-45
2020/12/10 10:08:15;;;;;;;98.43;38.50;;;3.30;99.90;;;;;;5032747;28;20022;-44
2020/12/10 10:10:41;;;;;;;94.78;37.08;;;3.20;99.90;;;;;;5032664;28;20025;-45
2020/12/10 10:13:06;;;;;;;107.28;39.60;;;3.20;99.90;;;;;;5032737;28;20108;-45
2020/12/10 10:15:32;;;;;;;111.25;42.00;;;3.20;99.90;;;;;;5032174;28;20498;-45
2020/12/10 10:17:58;;;;;;;111.13;39.33;;;3.20;99.90;;;;;;5031152;28;20021;-45
2020/12/10 10:20:23;;;;;;;109.53;39.28;;;3.20;99.90;;;;;;5032662;28;20513;-48
2020/12/10 10:22:49;;;;;;;102.88;40.55;;;3.20;99.90;;;;;;5032655;28;20036;-45
2020/12/10 10:25:14;;;;;;;107.68;39.95;;;3.20;99.90;;;;;;5031388;28;20033;-43
2020/12/10 10:27:40;;;;;;;98.28;39.42;;;3.20;99.90;;;;;;5032600;28;20140;-44
2020/12/10 10:30:07;;;;;;;104.13;39.95;;;3.20;99.90;;;;;;5032259;28;20049;-46
2020/12/10 10:32:33;;;;;;;105.13;38.60;;;3.20;99.90;;;;;;5032241;28;20036;-44
2020/12/10 10:34:58;;;;;;;105.88;38.20;;;3.30;99.90;;;;;;5042091;28;20036;-44
2020/12/10 10:37:24;;;;;;;90.68;38.33;;;3.30;99.90;;;;;;5052279;28;20021;-45
2020/12/10 10:39:49;;;;;;;100.85;37.88;;;3.30;99.90;;;;;;5052239;28;20421;-45
2020/12/10 10:42:15;;;;;;;92.45;35.85;;;3.20;99.90;;;;;;5052298;28;20154;-44
2020/12/10 10:44:40;;;;;;;91.55;34.78;;;3.20;99.90;;;;;;5037411;28;20041;-45
2020/12/10 10:47:06;;;;;;;89.45;37.03;;;3.20;99.90;;;;;;5051946;28;20049;-44
2020/12/10 10:49:31;;;;;;;99.80;37.05;;;3.20;99.90;;;;;;5051691;28;20086;-44
2020/12/10 10:51:57;;;;;;;95.32;36.33;;;3.20;99.90;;;;;;5052155;28;20025;-44
2020/12/10 10:54:22;;;;;;;97.55;37.35;;;3.10;99.90;;;;;;5051284;28;20071;-45
2020/12/10 10:56:48;;;;;;;89.25;36.30;;;3.10;99.90;;;;;;5051783;28;20021;-47
2020/12/10 10:59:14;;;;;;;87.78;36.42;;;3.10;99.90;;;;;;5050132;28;20418;-43
2020/12/10 11:01:40;;;;;;;87.53;35.10;;;3.10;99.90;;;;;;5051331;28;20054;-45
2020/12/10 11:04:06;;;;;;;88.18;34.08;;;3.10;99.90;;;;;;5048808;28;20029;-44
2020/12/10 11:06:31;;;;;;;98.18;39.35;;;3.10;99.90;;;;;;5041809;28;20120;-46
2020/12/10 11:08:57;;;;;;;103.13;37.38;;;3.10;99.90;;;;;;5031310;28;20108;-45
2020/12/10 11:11:23;;;;;;;94.70;37.58;;;3.10;99.90;;;;;;5031088;28;20124;-44
2020/12/10 11:13:49;;;;;;;93.78;37.03;;;3.10;99.90;;;;;;5031464;28;20072;-45
2020/12/10 11:16:15;;;;;;;96.53;38.03;;;3.10;99.90;;;;;;5031030;28;20112;-45
2020/12/10 11:18:44;;;;;;;84.15;33.97;;;3.10;99.90;;;;;;5031484;28;20028;-44
2020/12/10 11:21:14;;;;;;;89.65;35.65;;;3.10;99.90;;;;;;5031560;28;20030;-45
2020/12/10 11:23:41;;;;;;;78.55;34.25;;;3.10;99.90;;;;;;5031405;28;20054;-45
2020/12/10 11:26:06;;;;;;;87.85;34.50;;;3.10;99.90;;;;;;5031007;28;20611;-45
2020/12/10 11:28:32;;;;;;;93.82;34.53;;;3.10;99.90;;;;;;5031285;28;20106;-46
2020/12/10 11:30:58;;;;;;;96.85;38.45;;;3.10;99.90;;;;;;5031185;28;20449;-45
2020/12/10 11:33:24;;;;;;;96.03;38.47;;;3.10;99.90;;;;;;5029341;28;20051;-45
2020/12/10 11:35:50;;;;;;;94.72;36.67;;;3.10;99.90;;;;;;5030533;28;20033;-44
2020/12/10 11:38:16;;;;;;;87.25;34.33;;;3.20;99.90;;;;;;5030658;28;20029;-45
2020/12/10 11:40:42;;;;;;;76.25;30.92;;;3.20;99.90;;;;;;5030618;28;20025;-45
2020/12/10 11:43:07;;;;;;;86.00;34.85;;;3.20;99.90;;;;;;5035321;28;20034;-45
2020/12/10 11:45:34;;;;;;;79.90;31.80;;;3.20;99.90;;;;;;5029624;28;20505;-43
2020/12/10 11:48:04;;;;;;;79.97;33.67;;;3.20;99.90;;;;;;5030110;28;20017;-44
2020/12/10 11:50:32;;;;;;;84.43;33.33;;;3.20;99.90;;;;;;5029869;28;20021;-46
2020/12/10 11:52:57;;;;;;;79.97;31.27;;;3.20;99.90;;;;;;5029220;28;20024;-45
2020/12/10 11:55:23;;;;;;;76.80;31.80;;;3.20;99.90;;;;;;5028330;28;20128;-44
2020/12/10 11:57:49;;;;;;;77.53;30.42;;;3.20;99.90;;;;;;5030463;28;20029;-44
2020/12/10 12:00:15;;;;;;;76.65;30.80;;;3.20;99.90;;;;;;5030523;28;20072;-45
2020/12/10 12:02:41;;;;;;;69.95;31.10;;;3.10;99.90;;;;;;5028322;28;20589;-44
2020/12/10 12:05:08;;;;;;;76.65;30.70;;;3.20;99.90;;;;;;5032676;28;20029;-46
2020/12/10 12:07:36;;;;;;;75.55;30.23;;;3.20;99.90;;;;;;5025588;28;20079;-44
2020/12/10 12:10:02;;;;;;;75.43;30.85;;;3.20;99.90;;;;;;5029682;28;20041;-45
2020/12/10 12:12:27;;;;;;;73.85;30.02;;;3.20;99.90;;;;;;5032226;28;20049;-47
2020/12/10 12:14:53;;;;;;;72.10;29.50;;;3.20;99.90;;;;;;5039099;28;20025;-48
2020/12/10 12:17:18;;;;;;;72.88;31.27;;;3.30;99.90;;;;;;5029868;28;20028;-47
2020/12/10 12:19:44;;;;;;;78.30;32.67;;;3.20;99.90;;;;;;5030862;28;20032;-49
2020/12/10 12:22:10;;;;;;;77.53;32.17;;;3.30;99.90;;;;;;5033581;28;20026;-48
2020/12/10 12:24:35;;;;;;;76.30;31.10;;;3.30;99.90;;;;;;5029892;28;20483;-48
2020/12/10 12:27:05;;;;;;;83.30;33.80;;;3.30;99.90;;;;;;5030351;28;20763;-49
2020/12/10 12:29:31;;;;;;;78.82;32.85;;;3.30;99.90;;;;;;5030898;28;20026;-47
2020/12/10 12:31:57;;;;;;;87.55;34.90;;;3.30;99.90;;;;;;5030495;28;20447;-49
2020/12/10 12:34:22;;;;;;;75.80;31.45;;;3.30;99.90;;;;;;5035088;28;20028;-47
2020/12/10 12:36:48;;;;;;;92.70;35.22;;;3.30;99.90;;;;;;5050358;28;20067;-46